createdAt,value
2017-11-03T00:01:04.577Z,9.30
2017-11-03T00:03:32.099Z,9.20
2017-11-03T00:05:59.552Z,9.20
2017-11-03T00:08:27.023Z,9.20
2017-11-03T00:10:55.308Z,9.20
2017-11-03T00:13:23.546Z,9.20
2017-11-03T00:15:51.051Z,9.20
2017-11-03T00:18:18.567Z,9.20
2017-11-03T00:20:46.088Z,9.20
2017-11-03T00:23:13.565Z,9.10
2017-11-03T00:25:41.058Z,9.20
2017-11-03T00:28:08.551Z,9.10
2017-11-03T00:30:36.784Z,9.10
2017-11-03T00:33:04.302Z,9.10
2017-11-03T00:35:31.774Z,9.10
2017-11-03T00:37:59.259Z,9.10
2017-11-03T00:40:26.748Z,9.10
2017-11-03T00:42:55.020Z,9.20
2017-11-03T00:45:22.472Z,9.10
2017-11-03T00:47:49.947Z,9.20
2017-11-03T00:50:18.215Z,9.10
2017-11-03T00:52:45.711Z,9.10
2017-11-03T00:55:13.211Z,9.10
2017-11-03T00:57:40.675Z,9.10
2017-11-03T01:00:08.147Z,9.10
2017-11-03T01:02:36.431Z,9.10
2017-11-03T01:05:04.691Z,9.10
2017-11-03T01:07:32.158Z,9.10
2017-11-03T01:10:00.449Z,9.10
2017-11-03T01:12:28.711Z,9.00
2017-11-03T01:14:56.222Z,9.00
2017-11-03T01:17:23.713Z,9.00
2017-11-03T01:19:51.228Z,9.00
2017-11-03T01:22:18.696Z,9.00
2017-11-03T01:24:46.178Z,9.10
2017-11-03T01:27:13.662Z,9.00
2017-11-03T01:29:41.908Z,9.00
2017-11-03T01:32:09.408Z,9.00
2017-11-03T01:34:37.635Z,9.00
2017-11-03T01:37:05.150Z,9.00
2017-11-03T01:39:32.620Z,9.00
2017-11-03T01:42:00.131Z,9.00
2017-11-03T01:44:27.654Z,8.90
2017-11-03T01:46:55.116Z,9.00
2017-11-03T01:49:22.616Z,9.00
2017-11-03T01:51:50.108Z,9.00
2017-11-03T01:54:18.366Z,9.00
2017-11-03T01:56:46.591Z,9.00
2017-11-03T01:59:14.140Z,9.00
2017-11-03T02:01:41.636Z,9.00
2017-11-03T02:04:09.122Z,9.00
2017-11-03T02:06:37.388Z,9.00
2017-11-03T02:09:04.858Z,9.00
2017-11-03T02:11:33.139Z,8.90
2017-11-03T02:14:01.387Z,8.90
2017-11-03T02:16:28.847Z,8.90
2017-11-03T02:18:57.858Z,8.90
2017-11-03T02:21:26.081Z,8.90
2017-11-03T02:23:53.621Z,8.90
2017-11-03T02:26:21.082Z,8.90
2017-11-03T02:28:48.551Z,8.90
2017-11-03T02:31:16.103Z,8.80
2017-11-03T02:33:45.699Z,8.80
2017-11-03T02:36:17.478Z,8.70
2017-11-03T02:38:49.135Z,8.70
2017-11-03T02:41:16.627Z,8.70
2017-11-03T02:43:44.120Z,8.70
2017-11-03T02:46:12.380Z,8.70
2017-11-03T02:48:39.880Z,8.60
2017-11-03T02:51:07.360Z,8.60
2017-11-03T02:53:34.819Z,8.60
2017-11-03T02:56:02.348Z,8.60
2017-11-03T02:58:29.811Z,8.60
2017-11-03T03:00:57.323Z,8.50
2017-11-03T03:03:24.799Z,8.50
2017-11-03T03:05:53.042Z,8.50
2017-11-03T03:08:20.541Z,8.50
2017-11-03T03:10:48.773Z,8.50
2017-11-03T03:13:16.279Z,8.50
2017-11-03T03:15:44.527Z,8.60
2017-11-03T03:18:12.049Z,8.60
2017-11-03T03:20:39.552Z,8.50
2017-11-03T03:23:07.048Z,8.50
2017-11-03T03:25:34.555Z,8.50
2017-11-03T03:28:02.047Z,8.50
2017-11-03T03:30:30.316Z,8.50
2017-11-03T03:32:58.555Z,8.50
2017-11-03T03:35:26.067Z,8.40
2017-11-03T03:37:54.298Z,8.50
2017-11-03T03:40:21.798Z,8.50
2017-11-03T03:42:50.051Z,8.50
2017-11-03T03:45:17.526Z,8.50
2017-11-03T03:47:45.783Z,8.50
2017-11-03T03:50:14.044Z,8.50
2017-11-03T03:52:41.560Z,8.50
2017-11-03T03:55:09.044Z,8.50
2017-11-03T03:57:36.516Z,8.40
2017-11-03T04:00:04.041Z,8.40
2017-11-03T04:02:31.508Z,8.30
2017-11-03T04:04:59.003Z,8.20
2017-11-03T04:07:26.481Z,8.10
2017-11-03T04:09:54.008Z,8.10
2017-11-03T04:12:21.489Z,8.20
2017-11-03T04:14:48.956Z,8.20
2017-11-03T04:17:17.215Z,8.20
2017-11-03T04:19:44.699Z,8.30
2017-11-03T04:22:12.975Z,8.30
2017-11-03T04:24:42.658Z,8.30
2017-11-03T04:27:10.119Z,8.30
2017-11-03T04:29:37.730Z,8.10
2017-11-03T04:32:05.204Z,8.10
2017-11-03T04:34:32.699Z,8.10
2017-11-03T04:37:00.184Z,8.10
2017-11-03T04:39:28.459Z,8.10
2017-11-03T04:41:56.691Z,8.10
2017-11-03T04:44:24.200Z,8.10
2017-11-03T04:46:52.451Z,8.10
2017-11-03T04:49:19.941Z,8.10
2017-11-03T04:51:48.206Z,8.00
2017-11-03T04:54:16.447Z,8.00
2017-11-03T04:56:43.940Z,8.00
2017-11-03T04:59:12.207Z,8.10
2017-11-03T05:01:40.469Z,8.00
2017-11-03T05:04:07.972Z,7.90
2017-11-03T05:06:35.455Z,8.00
2017-11-03T05:09:02.959Z,7.90
2017-11-03T05:11:31.208Z,8.00
2017-11-03T05:13:58.723Z,8.00
2017-11-03T05:16:26.219Z,8.00
2017-11-03T05:18:55.595Z,8.00
2017-11-03T05:21:23.078Z,8.00
2017-11-03T05:23:50.544Z,8.00
2017-11-03T05:26:18.044Z,8.10
2017-11-03T05:28:46.284Z,7.90
2017-11-03T05:31:13.774Z,7.90
2017-11-03T05:33:42.020Z,7.80
2017-11-03T05:36:09.528Z,7.70
2017-11-03T05:38:37.008Z,7.70
2017-11-03T05:41:04.488Z,7.70
2017-11-03T05:43:31.991Z,7.80
2017-11-03T05:46:00.258Z,8.00
2017-11-03T05:48:28.523Z,8.00
2017-11-03T05:50:56.016Z,8.00
2017-11-03T05:53:23.521Z,8.00
2017-11-03T05:55:50.989Z,7.90
2017-11-03T05:58:18.496Z,7.90
2017-11-03T06:00:45.979Z,7.90
2017-11-03T06:03:13.482Z,7.90
2017-11-03T06:05:40.998Z,7.90
2017-11-03T06:08:08.476Z,7.90
2017-11-03T06:10:35.950Z,7.90
2017-11-03T06:13:03.458Z,7.80
2017-11-03T06:15:30.929Z,7.90
2017-11-03T06:17:58.442Z,7.80
2017-11-03T06:20:26.765Z,8.00
2017-11-03T06:22:54.300Z,7.90
2017-11-03T06:25:21.814Z,8.00
2017-11-03T06:27:49.271Z,8.00
2017-11-03T06:30:16.776Z,8.00
2017-11-03T06:32:44.264Z,7.90
2017-11-03T06:35:11.755Z,7.80
2017-11-03T06:37:39.240Z,7.80
2017-11-03T06:40:07.550Z,7.80
2017-11-03T06:42:35.015Z,7.70
2017-11-03T06:45:02.515Z,7.80
2017-11-03T06:47:30.188Z,7.80
2017-11-03T06:49:57.660Z,7.90
2017-11-03T06:52:25.911Z,8.00
2017-11-03T06:54:53.415Z,8.00
2017-11-03T06:57:20.891Z,8.00
2017-11-03T06:59:48.411Z,8.00
2017-11-03T07:02:16.668Z,8.10
2017-11-03T07:04:44.200Z,8.10
2017-11-03T07:07:11.671Z,8.00
2017-11-03T07:09:39.173Z,8.10
2017-11-03T07:12:06.701Z,8.00
2017-11-03T07:14:34.968Z,8.00
2017-11-03T07:17:02.444Z,8.00
2017-11-03T07:19:30.707Z,8.10
2017-11-03T07:21:58.210Z,8.00
2017-11-03T07:24:25.683Z,8.10
2017-11-03T07:26:53.191Z,8.20
2017-11-03T07:29:21.451Z,8.10
2017-11-03T07:31:48.926Z,8.10
2017-11-03T07:34:16.427Z,8.20
2017-11-03T07:36:43.911Z,8.30
2017-11-03T07:39:11.411Z,8.40
2017-11-03T07:41:38.878Z,8.30
2017-11-03T07:44:07.173Z,8.50
2017-11-03T07:46:34.675Z,8.50
2017-11-03T07:49:02.195Z,9.20
2017-11-03T07:51:29.686Z,8.70
2017-11-03T07:53:57.162Z,8.60
2017-11-03T07:56:24.671Z,8.50
2017-11-03T07:58:52.135Z,8.40
2017-11-03T08:01:19.603Z,8.40
2017-11-03T08:03:47.111Z,8.40
2017-11-03T08:06:14.594Z,8.40
2017-11-03T08:08:42.119Z,8.40
2017-11-03T08:11:09.624Z,8.50
2017-11-03T08:13:37.120Z,8.50
2017-11-03T08:16:04.609Z,8.50
2017-11-03T08:18:32.119Z,8.60
2017-11-03T08:20:59.603Z,8.60
2017-11-03T08:23:27.096Z,8.60
2017-11-03T08:25:55.368Z,8.60
2017-11-03T08:28:23.627Z,8.70
2017-11-03T08:30:51.116Z,8.60
2017-11-03T08:33:19.372Z,8.60
2017-11-03T08:35:46.836Z,8.60
2017-11-03T08:38:15.102Z,8.70
2017-11-03T08:40:42.652Z,8.60
2017-11-03T08:43:10.170Z,8.70
2017-11-03T08:45:37.660Z,8.80
2017-11-03T08:48:05.153Z,8.80
2017-11-03T08:50:33.400Z,8.90
2017-11-03T08:53:00.932Z,8.90
2017-11-03T08:55:28.411Z,9.00
2017-11-03T08:57:55.885Z,8.90
2017-11-03T09:00:23.404Z,8.90
2017-11-03T09:02:50.878Z,8.90
2017-11-03T09:05:18.371Z,8.90
2017-11-03T09:07:45.872Z,9.00
2017-11-03T09:10:13.351Z,9.10
2017-11-03T09:12:40.847Z,9.10
2017-11-03T09:15:08.367Z,9.20
2017-11-03T09:17:35.875Z,9.20
2017-11-03T09:20:03.353Z,9.30
2017-11-03T09:22:30.850Z,9.40
2017-11-03T09:24:58.359Z,9.30
2017-11-03T09:27:26.600Z,9.30
2017-11-03T09:29:54.094Z,9.30
2017-11-03T09:32:22.416Z,9.40
2017-11-03T09:34:49.923Z,9.40
2017-11-03T09:37:18.190Z,9.50
2017-11-03T09:39:45.695Z,9.40
2017-11-03T09:42:13.212Z,9.50
2017-11-03T09:44:40.688Z,9.60
2017-11-03T09:47:08.955Z,9.60
2017-11-03T09:49:36.408Z,9.60
2017-11-03T09:52:04.688Z,9.80
2017-11-03T09:54:32.159Z,9.80
2017-11-03T09:57:00.436Z,9.90
2017-11-03T09:59:28.687Z,10.00
2017-11-03T10:01:56.176Z,10.00
2017-11-03T10:04:24.457Z,10.20
2017-11-03T10:06:51.928Z,10.20
2017-11-03T10:09:19.398Z,10.30
2017-11-03T10:11:46.915Z,10.40
2017-11-03T10:14:15.188Z,10.60
2017-11-03T10:16:43.448Z,10.70
2017-11-03T10:19:10.929Z,10.70
2017-11-03T10:21:39.218Z,10.70
2017-11-03T10:24:07.487Z,10.80
2017-11-03T10:26:36.466Z,10.90
2017-11-03T10:29:03.968Z,10.90
2017-11-03T10:31:31.451Z,10.90
2017-11-03T10:33:58.951Z,10.90
2017-11-03T10:36:27.191Z,11.10
2017-11-03T10:38:54.663Z,11.10
2017-11-03T10:41:22.152Z,11.10
2017-11-03T10:43:50.383Z,11.20
2017-11-03T10:46:17.900Z,11.20
2017-11-03T10:48:45.379Z,11.20
2017-11-03T10:51:12.903Z,11.20
2017-11-03T10:53:41.199Z,11.20
2017-11-03T10:56:08.692Z,11.20
2017-11-03T10:58:36.194Z,11.20
2017-11-03T11:01:04.443Z,11.30
2017-11-03T11:03:31.933Z,11.30
2017-11-03T11:06:00.173Z,11.30
2017-11-03T11:08:27.681Z,11.30
2017-11-03T11:10:55.928Z,11.30
2017-11-03T11:13:23.416Z,11.30
2017-11-03T11:15:51.668Z,11.40
2017-11-03T11:18:19.948Z,11.40
2017-11-03T11:20:48.244Z,11.40
2017-11-03T11:23:16.509Z,11.50
2017-11-03T11:25:44.763Z,11.40
2017-11-03T11:28:12.272Z,11.40
2017-11-03T11:30:39.768Z,11.40
2017-11-03T11:33:07.272Z,11.40
2017-11-03T11:35:35.508Z,11.50
2017-11-03T11:38:03.784Z,11.50
2017-11-03T11:40:31.280Z,11.50
2017-11-03T11:42:59.532Z,11.60
2017-11-03T11:45:27.034Z,11.60
2017-11-03T11:47:54.508Z,11.60
2017-11-03T11:50:22.019Z,11.50
2017-11-03T11:52:50.268Z,11.50
2017-11-03T11:55:17.738Z,11.50
2017-11-03T11:57:45.255Z,11.60
2017-11-03T12:00:12.735Z,11.50
2017-11-03T12:02:40.251Z,11.40
2017-11-03T12:05:08.482Z,11.50
2017-11-03T12:07:36.003Z,11.50
2017-11-03T12:10:03.468Z,11.60
2017-11-03T12:12:30.962Z,11.60
2017-11-03T12:14:58.487Z,11.60
2017-11-03T12:17:25.961Z,11.50
2017-11-03T12:19:53.484Z,11.60
2017-11-03T12:22:20.953Z,11.60
2017-11-03T12:24:48.446Z,11.60
2017-11-03T12:27:15.968Z,11.70
2017-11-03T12:29:43.435Z,11.70
2017-11-03T12:32:10.959Z,11.80
2017-11-03T12:34:39.214Z,11.80
2017-11-03T12:37:06.754Z,11.80
2017-11-03T12:39:34.230Z,11.80
2017-11-03T12:42:01.711Z,11.90
2017-11-03T12:44:29.992Z,11.80
2017-11-03T12:46:58.245Z,11.80
2017-11-03T12:49:25.763Z,11.80
2017-11-03T12:51:53.259Z,11.80
2017-11-03T12:54:20.756Z,11.80
2017-11-03T12:56:48.258Z,11.90
2017-11-03T12:59:15.776Z,11.90
2017-11-03T13:01:43.289Z,12.00
2017-11-03T13:04:10.804Z,12.00
2017-11-03T13:06:38.280Z,11.80
2017-11-03T13:09:05.755Z,11.80
2017-11-03T13:11:33.259Z,11.80
2017-11-03T13:14:01.500Z,11.80
2017-11-03T13:16:28.990Z,11.80
2017-11-03T13:18:57.271Z,11.70
2017-11-03T13:21:25.540Z,11.70
2017-11-03T13:23:53.843Z,11.70
2017-11-03T13:26:21.338Z,11.70
2017-11-03T13:28:48.864Z,11.70
2017-11-03T13:31:16.363Z,11.70
2017-11-03T13:33:43.857Z,11.70
2017-11-03T13:36:12.120Z,11.80
2017-11-03T13:38:39.603Z,11.80
2017-11-03T13:41:07.891Z,11.90
2017-11-03T13:43:35.386Z,11.90
2017-11-03T13:46:02.865Z,11.90
2017-11-03T13:48:31.140Z,11.70
2017-11-03T13:50:58.614Z,11.80
2017-11-03T13:53:26.892Z,11.70
2017-11-03T13:55:55.145Z,11.70
2017-11-03T13:58:22.679Z,11.70
2017-11-03T14:00:50.139Z,11.70
2017-11-03T14:03:17.619Z,11.70
2017-11-03T14:05:45.140Z,11.70
2017-11-03T14:08:12.643Z,11.70
2017-11-03T14:10:40.163Z,11.70
2017-11-03T14:13:07.643Z,11.70
2017-11-03T14:15:35.133Z,11.70
2017-11-03T14:18:02.645Z,11.80
2017-11-03T14:20:30.132Z,11.80
2017-11-03T14:22:57.608Z,11.80
2017-11-03T14:25:25.128Z,11.90
2017-11-03T14:27:52.616Z,11.90
2017-11-03T14:30:20.083Z,11.90
2017-11-03T14:32:48.364Z,12.00
2017-11-03T14:35:15.840Z,12.00
2017-11-03T14:37:44.108Z,12.10
2017-11-03T14:40:12.339Z,11.90
2017-11-03T14:42:39.851Z,11.90
2017-11-03T14:45:08.143Z,11.70
2017-11-03T14:47:35.655Z,11.70
2017-11-03T14:50:03.182Z,11.60
2017-11-03T14:52:30.664Z,11.50
2017-11-03T14:54:58.163Z,11.50
2017-11-03T14:57:26.399Z,11.40
2017-11-03T14:59:53.912Z,11.40
2017-11-03T15:02:21.437Z,11.30
2017-11-03T15:04:48.912Z,11.30
2017-11-03T15:07:17.193Z,11.20
2017-11-03T15:09:45.435Z,11.10
2017-11-03T15:12:12.934Z,11.10
2017-11-03T15:14:40.440Z,11.00
2017-11-03T15:17:07.907Z,11.00
2017-11-03T15:19:35.419Z,10.90
2017-11-03T15:22:02.943Z,10.90
2017-11-03T15:24:30.476Z,10.90
2017-11-03T15:26:57.959Z,10.90
2017-11-03T15:29:25.423Z,10.80
2017-11-03T15:31:53.700Z,10.60
2017-11-03T15:34:21.201Z,10.50
2017-11-03T15:36:48.711Z,10.50
2017-11-03T15:39:16.201Z,10.50
2017-11-03T15:41:44.473Z,10.40
2017-11-03T15:44:12.721Z,10.30
2017-11-03T15:46:40.216Z,10.30
2017-11-03T15:49:07.711Z,10.30
2017-11-03T15:51:35.190Z,10.20
2017-11-03T15:54:02.690Z,10.20
2017-11-03T15:56:30.923Z,9.90
2017-11-03T15:58:58.436Z,9.90
2017-11-03T16:01:25.930Z,9.70
2017-11-03T16:03:53.454Z,9.50
2017-11-03T16:06:20.961Z,9.40
2017-11-03T16:08:48.481Z,9.30
2017-11-03T16:11:16.009Z,9.40
2017-11-03T16:13:44.247Z,9.20
2017-11-03T16:16:11.739Z,9.20
2017-11-03T16:18:40.000Z,9.10
2017-11-03T16:21:07.471Z,9.10
2017-11-03T16:23:35.736Z,9.10
2017-11-03T16:26:03.227Z,9.10
2017-11-03T16:28:30.696Z,9.10
2017-11-03T16:30:58.208Z,9.00
2017-11-03T16:33:25.703Z,8.90
2017-11-03T16:35:53.210Z,8.80
2017-11-03T16:38:20.675Z,8.70
2017-11-03T16:40:48.213Z,8.60
2017-11-03T16:43:15.709Z,8.60
2017-11-03T16:45:43.196Z,8.50
2017-11-03T16:48:10.727Z,8.60
2017-11-03T16:50:38.210Z,8.60
2017-11-03T16:53:06.472Z,8.50
2017-11-03T16:55:33.971Z,8.50
2017-11-03T16:58:01.511Z,8.40
2017-11-03T17:00:29.742Z,8.10
2017-11-03T17:02:57.206Z,8.10
2017-11-03T17:05:24.711Z,8.20
2017-11-03T17:07:52.212Z,8.20
2017-11-03T17:10:19.680Z,8.20
2017-11-03T17:12:47.200Z,8.00
2017-11-03T17:15:14.680Z,8.00
2017-11-03T17:17:42.160Z,7.70
2017-11-03T17:20:09.655Z,7.70
2017-11-03T17:22:37.168Z,7.50
2017-11-03T17:25:04.640Z,7.50
2017-11-03T17:27:32.155Z,7.50
2017-11-03T17:29:59.658Z,7.40
2017-11-03T17:32:27.538Z,7.30
2017-11-03T17:34:55.857Z,7.40
2017-11-03T17:37:23.341Z,7.30
2017-11-03T17:39:50.861Z,7.30
2017-11-03T17:42:18.347Z,7.30
2017-11-03T17:44:45.862Z,7.30
2017-11-03T17:47:13.362Z,7.00
2017-11-03T17:49:40.896Z,7.00
2017-11-03T17:52:08.388Z,6.90
2017-11-03T17:54:35.851Z,7.00
2017-11-03T17:57:03.363Z,6.90
2017-11-03T17:59:30.858Z,6.90
2017-11-03T18:01:58.360Z,7.10
2017-11-03T18:04:26.602Z,7.10
2017-11-03T18:06:54.102Z,7.10
2017-11-03T18:09:22.398Z,7.00
2017-11-03T18:11:49.879Z,7.00
2017-11-03T18:14:17.386Z,6.60
2017-11-03T18:16:44.882Z,6.80
2017-11-03T18:19:12.398Z,6.80
2017-11-03T18:21:39.920Z,6.90
2017-11-03T18:24:07.407Z,6.90
2017-11-03T18:26:34.936Z,6.90
2017-11-03T18:29:02.411Z,6.80
2017-11-03T18:31:29.884Z,6.80
2017-11-03T18:33:57.380Z,6.80
2017-11-03T18:36:24.852Z,6.80
2017-11-03T18:38:52.339Z,6.70
2017-11-03T18:41:19.855Z,6.70
2017-11-03T18:43:47.355Z,6.70
2017-11-03T18:46:14.861Z,6.60
2017-11-03T18:48:43.139Z,6.50
2017-11-03T18:51:11.420Z,6.50
2017-11-03T18:53:39.664Z,6.50
2017-11-03T18:56:07.180Z,6.50
2017-11-03T18:58:34.708Z,6.50
2017-11-03T19:01:02.988Z,6.20
2017-11-03T19:03:31.229Z,6.20
2017-11-03T19:05:58.704Z,6.20
2017-11-03T19:08:27.004Z,6.20
2017-11-03T19:10:55.245Z,6.20
2017-11-03T19:13:22.776Z,6.20
2017-11-03T19:15:50.278Z,6.20
2017-11-03T19:18:17.742Z,6.20
2017-11-03T19:20:45.271Z,6.10
2017-11-03T19:23:12.768Z,6.10
2017-11-03T19:25:40.260Z,6.00
2017-11-03T19:28:07.740Z,6.00
2017-11-03T19:30:35.248Z,6.00
2017-11-03T19:33:03.509Z,5.20
2017-11-03T19:35:31.000Z,5.20
2017-11-03T19:37:59.270Z,5.60
2017-11-03T19:40:27.516Z,5.70
2017-11-03T19:42:55.050Z,5.70
2017-11-03T19:45:22.527Z,5.70
2017-11-03T19:47:49.999Z,5.70
2017-11-03T19:50:17.525Z,5.60
2017-11-03T19:52:45.007Z,5.60
2017-11-03T19:55:12.498Z,5.60
2017-11-03T19:57:40.758Z,5.50
2017-11-03T20:00:08.210Z,5.50
2017-11-03T20:02:36.469Z,5.30
2017-11-03T20:05:03.968Z,5.30
2017-11-03T20:07:32.269Z,5.30
2017-11-03T20:09:59.732Z,5.20
2017-11-03T20:12:27.504Z,5.40
2017-11-03T20:14:54.967Z,5.40
2017-11-03T20:17:22.499Z,5.20
2017-11-03T20:19:49.983Z,5.20
2017-11-03T20:22:17.448Z,5.20
2017-11-03T20:24:44.986Z,5.20
2017-11-03T20:27:12.448Z,5.20
2017-11-03T20:29:39.940Z,5.10
2017-11-03T20:32:07.415Z,5.10
2017-11-03T20:34:34.927Z,5.10
2017-11-03T20:37:02.416Z,5.00
2017-11-03T20:39:29.884Z,5.00
2017-11-03T20:41:57.499Z,5.00
2017-11-03T20:44:24.994Z,5.00
2017-11-03T20:46:52.459Z,4.80
2017-11-03T20:49:19.996Z,4.60
2017-11-03T20:51:47.477Z,4.70
2017-11-03T20:54:14.936Z,4.60
2017-11-03T20:56:42.434Z,4.60
2017-11-03T20:59:10.679Z,4.80
2017-11-03T21:01:38.180Z,4.80
2017-11-03T21:04:05.658Z,4.70
2017-11-03T21:06:33.140Z,4.60
2017-11-03T21:09:00.629Z,4.60
2017-11-03T21:11:28.912Z,4.60
2017-11-03T21:13:57.191Z,4.60
2017-11-03T21:16:25.423Z,4.50
2017-11-03T21:18:52.931Z,4.50
2017-11-03T21:21:21.163Z,4.50
2017-11-03T21:23:48.671Z,4.50
2017-11-03T21:26:16.175Z,4.40
2017-11-03T21:28:43.671Z,4.40
2017-11-03T21:31:11.982Z,4.40
2017-11-03T21:33:39.437Z,4.40
2017-11-03T21:36:06.942Z,4.40
2017-11-03T21:38:34.404Z,4.40
2017-11-03T21:41:01.883Z,4.20
2017-11-03T21:43:30.124Z,4.30
2017-11-03T21:45:57.620Z,4.30
2017-11-03T21:48:25.895Z,4.30
2017-11-03T21:50:54.135Z,4.30
2017-11-03T21:53:21.613Z,4.30
2017-11-03T21:55:49.117Z,4.00
2017-11-03T21:58:16.587Z,3.90
2017-11-03T22:00:44.100Z,4.20
2017-11-03T22:03:12.354Z,4.40
2017-11-03T22:05:39.828Z,4.30
2017-11-03T22:08:07.336Z,4.40
2017-11-03T22:10:34.805Z,4.40
2017-11-03T22:13:02.264Z,4.30
2017-11-03T22:15:29.742Z,4.10
2017-11-03T22:17:57.257Z,4.00
2017-11-03T22:20:24.774Z,4.00
2017-11-03T22:22:52.235Z,4.10
2017-11-03T22:25:19.751Z,4.20
2017-11-03T22:27:47.198Z,4.10
2017-11-03T22:30:14.670Z,3.90
2017-11-03T22:32:42.181Z,4.00
2017-11-03T22:35:10.409Z,3.90
2017-11-03T22:37:37.929Z,3.90
2017-11-03T22:40:06.175Z,3.10
2017-11-03T22:42:33.693Z,3.10
2017-11-03T22:45:01.187Z,3.20
2017-11-03T22:47:28.660Z,3.20
2017-11-03T22:49:56.930Z,3.90
2017-11-03T22:52:24.400Z,3.90
2017-11-03T22:54:52.669Z,4.00
2017-11-03T22:57:20.193Z,4.00
2017-11-03T22:59:47.686Z,4.00
2017-11-03T23:02:15.179Z,3.90
2017-11-03T23:04:42.653Z,3.60
2017-11-03T23:07:10.115Z,3.80
2017-11-03T23:09:37.615Z,4.00
2017-11-03T23:12:05.128Z,4.00
2017-11-03T23:14:32.666Z,3.80
2017-11-03T23:17:00.899Z,3.40
2017-11-03T23:19:28.388Z,3.40
2017-11-03T23:21:56.654Z,3.70
2017-11-03T23:24:24.148Z,3.70
2017-11-03T23:26:51.643Z,3.80
2017-11-03T23:29:19.115Z,3.80
2017-11-03T23:31:46.637Z,3.80
2017-11-03T23:34:14.095Z,3.80
2017-11-03T23:36:41.576Z,3.90
2017-11-03T23:39:09.076Z,3.80
2017-11-03T23:41:37.312Z,3.70
2017-11-03T23:44:04.829Z,3.60
2017-11-03T23:46:32.320Z,3.30
2017-11-03T23:48:59.778Z,2.90
2017-11-03T23:51:27.267Z,2.80
2017-11-03T23:53:54.750Z,2.70
2017-11-03T23:56:23.010Z,2.70
2017-11-03T23:58:51.259Z,2.60
